sensor_id;sensor_type;location;lat;lon;timestamp;P1;durP1;ratioP1;P2;durP2;ratioP2
72335;SDS011;73817;48.446;8.834;2023-12-20T00:01:04;0.50;;;0.40;;
72335;SDS011;73817;48.446;8.834;2023-12-20T00:04:04;0.50;;;0.30;;
72335;SDS011;73817;48.446;8.834;2023-12-20T00:07:06;0.55;;;0.40;;
72335;SDS011;73817;48.446;8.834;2023-12-20T00:10:06;0.95;;;0.55;;
72335;SDS011;73817;48.446;8.834;2023-12-20T00:13:07;0.82;;;0.40;;
72335;SDS011;73817;48.446;8.834;2023-12-20T00:16:07;1.40;;;0.30;;
72335;SDS011;73817;48.446;8.834;2023-12-20T00:19:08;0.30;;;0.22;;
72335;SDS011;73817;48.446;8.834;2023-12-20T00:22:08;0.90;;;0.40;;
72335;SDS011;73817;48.446;8.834;2023-12-20T00:25:08;0.50;;;0.50;;
72335;SDS011;73817;48.446;8.834;2023-12-20T00:28:09;0.80;;;0.77;;
72335;SDS011;73817;48.446;8.834;2023-12-20T00:31:09;0.50;;;0.40;;
72335;SDS011;73817;48.446;8.834;2023-12-20T00:34:10;0.43;;;0.43;;
72335;SDS011;73817;48.446;8.834;2023-12-20T00:37:10;0.63;;;0.38;;
72335;SDS011;73817;48.446;8.834;2023-12-20T00:40:10;0.45;;;0.25;;
72335;SDS011;73817;48.446;8.834;2023-12-20T00:43:11;0.75;;;0.30;;
72335;SDS011;73817;48.446;8.834;2023-12-20T00:46:12;0.25;;;0.22;;
72335;SDS011;73817;48.446;8.834;2023-12-20T00:49:12;1.08;;;0.57;;
72335;SDS011;73817;48.446;8.834;2023-12-20T00:52:12;0.45;;;0.30;;
72335;SDS011;73817;48.446;8.834;2023-12-20T00:55:13;0.73;;;0.60;;
72335;SDS011;73817;48.446;8.834;2023-12-20T00:58:14;0.50;;;0.50;;
72335;SDS011;73817;48.446;8.834;2023-12-20T01:01:15;0.60;;;0.60;;
72335;SDS011;73817;48.446;8.834;2023-12-20T01:04:15;0.85;;;0.40;;
72335;SDS011;73817;48.446;8.834;2023-12-20T01:07:16;2.28;;;0.30;;
72335;SDS011;73817;48.446;8.834;2023-12-20T01:10:16;0.52;;;0.52;;
72335;SDS011;73817;48.446;8.834;2023-12-20T01:13:17;0.68;;;0.68;;
72335;SDS011;73817;48.446;8.834;2023-12-20T01:16:17;0.50;;;0.38;;
72335;SDS011;73817;48.446;8.834;2023-12-20T01:19:18;0.70;;;0.22;;
72335;SDS011;73817;48.446;8.834;2023-12-20T01:22:18;0.90;;;0.73;;
72335;SDS011;73817;48.446;8.834;2023-12-20T01:25:19;0.40;;;0.38;;
72335;SDS011;73817;48.446;8.834;2023-12-20T01:28:19;0.35;;;0.25;;
72335;SDS011;73817;48.446;8.834;2023-12-20T01:31:19;0.40;;;0.30;;
72335;SDS011;73817;48.446;8.834;2023-12-20T01:34:20;0.47;;;0.22;;
72335;SDS011;73817;48.446;8.834;2023-12-20T01:37:21;0.30;;;0.20;;
72335;SDS011;73817;48.446;8.834;2023-12-20T01:40:23;0.50;;;0.40;;
72335;SDS011;73817;48.446;8.834;2023-12-20T01:43:25;0.35;;;0.20;;
72335;SDS011;73817;48.446;8.834;2023-12-20T01:46:25;0.75;;;0.30;;
72335;SDS011;73817;48.446;8.834;2023-12-20T01:49:26;0.60;;;0.60;;
72335;SDS011;73817;48.446;8.834;2023-12-20T01:52:27;0.40;;;0.30;;
72335;SDS011;73817;48.446;8.834;2023-12-20T01:55:29;0.75;;;0.47;;
72335;SDS011;73817;48.446;8.834;2023-12-20T01:58:31;0.30;;;0.20;;
72335;SDS011;73817;48.446;8.834;2023-12-20T02:01:32;0.85;;;0.20;;
72335;SDS011;73817;48.446;8.834;2023-12-20T02:04:33;0.30;;;0.20;;
72335;SDS011;73817;48.446;8.834;2023-12-20T02:07:33;0.50;;;0.30;;
72335;SDS011;73817;48.446;8.834;2023-12-20T02:10:37;0.70;;;0.40;;
72335;SDS011;73817;48.446;8.834;2023-12-20T02:13:37;1.60;;;0.40;;
72335;SDS011;73817;48.446;8.834;2023-12-20T02:16:38;0.32;;;0.22;;
72335;SDS011;73817;48.446;8.834;2023-12-20T02:19:38;1.50;;;0.43;;
72335;SDS011;73817;48.446;8.834;2023-12-20T02:22:38;0.30;;;0.20;;
72335;SDS011;73817;48.446;8.834;2023-12-20T02:25:39;0.20;;;0.17;;
72335;SDS011;73817;48.446;8.834;2023-12-20T02:28:39;0.28;;;0.10;;
72335;SDS011;73817;48.446;8.834;2023-12-20T02:31:39;0.20;;;0.20;;
72335;SDS011;73817;48.446;8.834;2023-12-20T02:34:40;1.38;;;0.28;;
72335;SDS011;73817;48.446;8.834;2023-12-20T02:37:40;0.50;;;0.50;;
72335;SDS011;73817;48.446;8.834;2023-12-20T02:40:40;0.10;;;0.10;;
72335;SDS011;73817;48.446;8.834;2023-12-20T02:43:41;0.22;;;0.10;;
72335;SDS011;73817;48.446;8.834;2023-12-20T02:46:41;0.32;;;0.32;;
72335;SDS011;73817;48.446;8.834;2023-12-20T02:49:41;0.30;;;0.28;;
72335;SDS011;73817;48.446;8.834;2023-12-20T02:52:44;0.13;;;0.10;;
72335;SDS011;73817;48.446;8.834;2023-12-20T02:55:45;0.28;;;0.10;;
72335;SDS011;73817;48.446;8.834;2023-12-20T02:58:45;0.50;;;0.10;;
72335;SDS011;73817;48.446;8.834;2023-12-20T03:01:46;0.10;;;0.10;;
72335;SDS011;73817;48.446;8.834;2023-12-20T03:04:46;0.10;;;0.10;;
72335;SDS011;73817;48.446;8.834;2023-12-20T03:07:47;0.10;;;0.10;;
72335;SDS011;73817;48.446;8.834;2023-12-20T03:10:47;0.10;;;0.10;;
72335;SDS011;73817;48.446;8.834;2023-12-20T03:13:47;0.25;;;0.20;;
72335;SDS011;73817;48.446;8.834;2023-12-20T03:16:50;0.98;;;0.15;;
72335;SDS011;73817;48.446;8.834;2023-12-20T03:19:51;0.25;;;0.20;;
72335;SDS011;73817;48.446;8.834;2023-12-20T03:22:51;0.10;;;0.10;;
72335;SDS011;73817;48.446;8.834;2023-12-20T03:25:52;0.52;;;0.10;;
72335;SDS011;73817;48.446;8.834;2023-12-20T03:28:52;0.10;;;0.10;;
72335;SDS011;73817;48.446;8.834;2023-12-20T03:31:52;0.20;;;0.20;;
72335;SDS011;73817;48.446;8.834;2023-12-20T03:34:53;0.10;;;0.10;;
72335;SDS011;73817;48.446;8.834;2023-12-20T03:37:53;0.10;;;0.10;;
72335;SDS011;73817;48.446;8.834;2023-12-20T03:40:53;0.10;;;0.10;;
72335;SDS011;73817;48.446;8.834;2023-12-20T03:43:54;0.10;;;0.10;;
72335;SDS011;73817;48.446;8.834;2023-12-20T03:46:54;0.05;;;0.05;;
72335;SDS011;73817;48.446;8.834;2023-12-20T03:49:54;0.20;;;0.10;;
72335;SDS011;73817;48.446;8.834;2023-12-20T03:52:55;0.20;;;0.10;;
72335;SDS011;73817;48.446;8.834;2023-12-20T03:55:55;0.10;;;0.10;;
72335;SDS011;73817;48.446;8.834;2023-12-20T03:58:56;0.17;;;0.10;;
72335;SDS011;73817;48.446;8.834;2023-12-20T04:01:56;0.17;;;0.10;;
72335;SDS011;73817;48.446;8.834;2023-12-20T04:04:56;1.00;;;0.20;;
72335;SDS011;73817;48.446;8.834;2023-12-20T04:07:57;0.10;;;0.03;;
72335;SDS011;73817;48.446;8.834;2023-12-20T04:10:58;0.93;;;0.38;;
72335;SDS011;73817;48.446;8.834;2023-12-20T04:13:58;0.47;;;0.20;;
72335;SDS011;73817;48.446;8.834;2023-12-20T04:16:58;0.10;;;0.00;;
72335;SDS011;73817;48.446;8.834;2023-12-20T04:19:59;0.45;;;0.20;;
72335;SDS011;73817;48.446;8.834;2023-12-20T04:22:59;0.20;;;0.20;;
72335;SDS011;73817;48.446;8.834;2023-12-20T04:25:59;0.28;;;0.00;;
72335;SDS011;73817;48.446;8.834;2023-12-20T04:29:00;0.03;;;0.03;;
72335;SDS011;73817;48.446;8.834;2023-12-20T04:32:00;0.10;;;0.10;;
72335;SDS011;73817;48.446;8.834;2023-12-20T04:35:00;0.32;;;0.15;;
72335;SDS011;73817;48.446;8.834;2023-12-20T04:38:01;11.93;;;10.93;;
72335;SDS011;73817;48.446;8.834;2023-12-20T04:41:01;2.60;;;2.40;;
72335;SDS011;73817;48.446;8.834;2023-12-20T04:44:02;0.32;;;0.32;;
72335;SDS011;73817;48.446;8.834;2023-12-20T04:47:02;0.20;;;0.10;;
72335;SDS011;73817;48.446;8.834;2023-12-20T04:50:03;0.30;;;0.30;;
72335;SDS011;73817;48.446;8.834;2023-12-20T04:53:04;0.60;;;0.40;;
72335;SDS011;73817;48.446;8.834;2023-12-20T04:56:04;0.30;;;0.20;;
72335;SDS011;73817;48.446;8.834;2023-12-20T04:59:04;0.22;;;0.10;;
72335;SDS011;73817;48.446;8.834;2023-12-20T05:02:05;0.43;;;0.10;;
72335;SDS011;73817;48.446;8.834;2023-12-20T05:05:06;0.22;;;0.10;;
72335;SDS011;73817;48.446;8.834;2023-12-20T05:08:06;0.20;;;0.10;;
72335;SDS011;73817;48.446;8.834;2023-12-20T05:11:07;0.70;;;0.50;;
72335;SDS011;73817;48.446;8.834;2023-12-20T05:14:07;1.05;;;0.60;;
72335;SDS011;73817;48.446;8.834;2023-12-20T05:17:08;0.40;;;0.22;;
72335;SDS011;73817;48.446;8.834;2023-12-20T05:20:08;2.88;;;0.90;;
72335;SDS011;73817;48.446;8.834;2023-12-20T05:23:09;10.10;;;2.45;;
72335;SDS011;73817;48.446;8.834;2023-12-20T05:26:09;145.07;;;34.78;;
72335;SDS011;73817;48.446;8.834;2023-12-20T05:29:09;17.77;;;3.95;;
72335;SDS011;73817;48.446;8.834;2023-12-20T05:32:10;8.70;;;2.47;;
72335;SDS011;73817;48.446;8.834;2023-12-20T05:35:10;3.97;;;0.95;;
72335;SDS011;73817;48.446;8.834;2023-12-20T05:38:11;2.75;;;0.55;;
72335;SDS011;73817;48.446;8.834;2023-12-20T05:41:11;0.68;;;0.20;;
72335;SDS011;73817;48.446;8.834;2023-12-20T05:44:11;1.20;;;0.90;;
72335;SDS011;73817;48.446;8.834;2023-12-20T05:47:12;0.40;;;0.20;;
72335;SDS011;73817;48.446;8.834;2023-12-20T05:50:12;0.85;;;0.63;;
72335;SDS011;73817;48.446;8.834;2023-12-20T05:53:12;0.30;;;0.30;;
72335;SDS011;73817;48.446;8.834;2023-12-20T05:56:13;0.52;;;0.20;;
72335;SDS011;73817;48.446;8.834;2023-12-20T05:59:13;0.20;;;0.20;;
72335;SDS011;73817;48.446;8.834;2023-12-20T06:02:13;0.30;;;0.30;;
72335;SDS011;73817;48.446;8.834;2023-12-20T06:05:14;0.65;;;0.35;;
72335;SDS011;73817;48.446;8.834;2023-12-20T06:08:14;0.35;;;0.20;;
72335;SDS011;73817;48.446;8.834;2023-12-20T06:11:14;0.32;;;0.13;;
72335;SDS011;73817;48.446;8.834;2023-12-20T06:14:15;0.22;;;0.13;;
72335;SDS011;73817;48.446;8.834;2023-12-20T06:17:15;0.20;;;0.10;;
72335;SDS011;73817;48.446;8.834;2023-12-20T06:20:16;0.40;;;0.20;;
72335;SDS011;73817;48.446;8.834;2023-12-20T06:23:16;0.35;;;0.20;;
72335;SDS011;73817;48.446;8.834;2023-12-20T06:26:16;0.70;;;0.40;;
72335;SDS011;73817;48.446;8.834;2023-12-20T06:29:17;0.80;;;0.50;;
72335;SDS011;73817;48.446;8.834;2023-12-20T06:32:17;0.80;;;0.50;;
72335;SDS011;73817;48.446;8.834;2023-12-20T06:35:17;0.80;;;0.50;;
72335;SDS011;73817;48.446;8.834;2023-12-20T06:38:18;0.80;;;0.40;;
72335;SDS011;73817;48.446;8.834;2023-12-20T06:41:19;1.00;;;0.50;;
72335;SDS011;73817;48.446;8.834;2023-12-20T06:44:19;0.77;;;0.35;;
72335;SDS011;73817;48.446;8.834;2023-12-20T06:47:21;0.63;;;0.40;;
72335;SDS011;73817;48.446;8.834;2023-12-20T06:50:21;1.63;;;0.50;;
72335;SDS011;73817;48.446;8.834;2023-12-20T06:53:21;1.05;;;0.52;;
72335;SDS011;73817;48.446;8.834;2023-12-20T06:56:22;1.45;;;1.10;;
72335;SDS011;73817;48.446;8.834;2023-12-20T06:59:22;1.08;;;0.55;;
72335;SDS011;73817;48.446;8.834;2023-12-20T07:02:23;0.60;;;0.50;;
72335;SDS011;73817;48.446;8.834;2023-12-20T07:05:23;1.10;;;0.70;;
72335;SDS011;73817;48.446;8.834;2023-12-20T07:08:24;0.80;;;0.55;;
72335;SDS011;73817;48.446;8.834;2023-12-20T07:11:24;0.90;;;0.73;;
72335;SDS011;73817;48.446;8.834;2023-12-20T07:17:27;0.73;;;0.30;;
72335;SDS011;73817;48.446;8.834;2023-12-20T07:20:28;0.50;;;0.32;;
72335;SDS011;73817;48.446;8.834;2023-12-20T07:23:28;0.82;;;0.30;;
72335;SDS011;73817;48.446;8.834;2023-12-20T07:26:29;0.98;;;0.30;;
72335;SDS011;73817;48.446;8.834;2023-12-20T07:29:29;1.33;;;0.52;;
72335;SDS011;73817;48.446;8.834;2023-12-20T07:32:30;2.35;;;1.42;;
72335;SDS011;73817;48.446;8.834;2023-12-20T07:35:30;283.90;;;91.35;;
72335;SDS011;73817;48.446;8.834;2023-12-20T07:38:30;247.82;;;74.50;;
72335;SDS011;73817;48.446;8.834;2023-12-20T07:41:31;145.02;;;42.30;;
72335;SDS011;73817;48.446;8.834;2023-12-20T07:44:31;63.15;;;19.27;;
72335;SDS011;73817;48.446;8.834;2023-12-20T07:47:31;30.17;;;9.32;;
72335;SDS011;73817;48.446;8.834;2023-12-20T07:50:32;8.48;;;2.83;;
72335;SDS011;73817;48.446;8.834;2023-12-20T07:53:32;6.57;;;1.92;;
72335;SDS011;73817;48.446;8.834;2023-12-20T07:56:33;1.65;;;1.33;;
72335;SDS011;73817;48.446;8.834;2023-12-20T07:59:33;1.50;;;1.10;;
72335;SDS011;73817;48.446;8.834;2023-12-20T08:02:34;3.00;;;1.15;;
72335;SDS011;73817;48.446;8.834;2023-12-20T08:05:34;1.33;;;0.88;;
72335;SDS011;73817;48.446;8.834;2023-12-20T08:08:34;1.67;;;0.50;;
72335;SDS011;73817;48.446;8.834;2023-12-20T08:11:35;0.80;;;0.40;;
72335;SDS011;73817;48.446;8.834;2023-12-20T08:14:35;1.23;;;0.70;;
72335;SDS011;73817;48.446;8.834;2023-12-20T08:17:35;1.08;;;0.90;;
72335;SDS011;73817;48.446;8.834;2023-12-20T08:20:36;1.60;;;0.70;;
72335;SDS011;73817;48.446;8.834;2023-12-20T08:23:36;0.75;;;0.60;;
72335;SDS011;73817;48.446;8.834;2023-12-20T08:26:37;1.80;;;0.70;;
72335;SDS011;73817;48.446;8.834;2023-12-20T08:29:37;2.13;;;0.70;;
72335;SDS011;73817;48.446;8.834;2023-12-20T08:32:37;1.15;;;0.70;;
72335;SDS011;73817;48.446;8.834;2023-12-20T08:35:40;0.93;;;0.60;;
72335;SDS011;73817;48.446;8.834;2023-12-20T08:38:41;0.98;;;0.32;;
72335;SDS011;73817;48.446;8.834;2023-12-20T08:41:41;0.50;;;0.40;;
72335;SDS011;73817;48.446;8.834;2023-12-20T08:44:42;1.45;;;0.70;;
72335;SDS011;73817;48.446;8.834;2023-12-20T08:47:42;0.43;;;0.40;;
72335;SDS011;73817;48.446;8.834;2023-12-20T08:50:44;0.98;;;0.50;;
72335;SDS011;73817;48.446;8.834;2023-12-20T08:53:45;0.85;;;0.30;;
72335;SDS011;73817;48.446;8.834;2023-12-20T08:56:47;1.23;;;0.40;;
72335;SDS011;73817;48.446;8.834;2023-12-20T08:59:47;0.60;;;0.38;;
72335;SDS011;73817;48.446;8.834;2023-12-20T09:02:48;2.20;;;0.40;;
72335;SDS011;73817;48.446;8.834;2023-12-20T09:05:48;0.50;;;0.40;;
72335;SDS011;73817;48.446;8.834;2023-12-20T09:08:49;0.80;;;0.70;;
72335;SDS011;73817;48.446;8.834;2023-12-20T09:11:49;0.57;;;0.35;;
72335;SDS011;73817;48.446;8.834;2023-12-20T09:14:51;0.75;;;0.30;;
72335;SDS011;73817;48.446;8.834;2023-12-20T09:17:52;0.65;;;0.40;;
72335;SDS011;73817;48.446;8.834;2023-12-20T09:20:54;0.80;;;0.80;;
72335;SDS011;73817;48.446;8.834;2023-12-20T09:23:54;2.55;;;0.40;;
72335;SDS011;73817;48.446;8.834;2023-12-20T09:26:55;0.50;;;0.40;;
72335;SDS011;73817;48.446;8.834;2023-12-20T09:29:55;1.73;;;1.35;;
72335;SDS011;73817;48.446;8.834;2023-12-20T09:32:55;1.55;;;0.50;;
72335;SDS011;73817;48.446;8.834;2023-12-20T09:35:56;1.20;;;0.57;;
72335;SDS011;73817;48.446;8.834;2023-12-20T09:38:56;0.75;;;0.32;;
72335;SDS011;73817;48.446;8.834;2023-12-20T09:42:00;0.70;;;0.40;;
72335;SDS011;73817;48.446;8.834;2023-12-20T09:45:02;2.08;;;0.68;;
72335;SDS011;73817;48.446;8.834;2023-12-20T09:48:03;4.22;;;2.50;;
72335;SDS011;73817;48.446;8.834;2023-12-20T09:51:04;0.95;;;0.30;;
72335;SDS011;73817;48.446;8.834;2023-12-20T09:54:05;0.95;;;0.45;;
72335;SDS011;73817;48.446;8.834;2023-12-20T09:57:05;2.17;;;0.70;;
72335;SDS011;73817;48.446;8.834;2023-12-20T10:00:06;1.20;;;1.08;;
72335;SDS011;73817;48.446;8.834;2023-12-20T10:03:07;1.08;;;0.80;;
72335;SDS011;73817;48.446;8.834;2023-12-20T10:06:08;3.40;;;1.50;;
72335;SDS011;73817;48.446;8.834;2023-12-20T10:09:10;5.50;;;2.25;;
72335;SDS011;73817;48.446;8.834;2023-12-20T10:12:11;2.78;;;1.15;;
72335;SDS011;73817;48.446;8.834;2023-12-20T10:15:11;1.15;;;0.85;;
72335;SDS011;73817;48.446;8.834;2023-12-20T10:18:12;1.42;;;0.63;;
72335;SDS011;73817;48.446;8.834;2023-12-20T10:21:12;1.42;;;0.60;;
72335;SDS011;73817;48.446;8.834;2023-12-20T10:24:16;1.33;;;1.08;;
72335;SDS011;73817;48.446;8.834;2023-12-20T10:27:17;2.55;;;1.67;;
72335;SDS011;73817;48.446;8.834;2023-12-20T10:30:19;5.03;;;2.90;;
72335;SDS011;73817;48.446;8.834;2023-12-20T10:33:26;2.60;;;1.70;;
72335;SDS011;73817;48.446;8.834;2023-12-20T10:36:29;2.03;;;1.08;;
72335;SDS011;73817;48.446;8.834;2023-12-20T10:39:31;1.60;;;0.75;;
72335;SDS011;73817;48.446;8.834;2023-12-20T10:42:32;5.70;;;2.03;;
72335;SDS011;73817;48.446;8.834;2023-12-20T10:45:36;5.53;;;1.17;;
72335;SDS011;73817;48.446;8.834;2023-12-20T10:48:36;7.10;;;2.97;;
72335;SDS011;73817;48.446;8.834;2023-12-20T10:51:39;1.38;;;0.68;;
72335;SDS011;73817;48.446;8.834;2023-12-20T10:54:40;2.25;;;0.70;;
72335;SDS011;73817;48.446;8.834;2023-12-20T10:57:41;2.63;;;0.75;;
72335;SDS011;73817;48.446;8.834;2023-12-20T11:00:42;3.13;;;0.90;;
72335;SDS011;73817;48.446;8.834;2023-12-20T11:03:52;1.48;;;0.60;;
72335;SDS011;73817;48.446;8.834;2023-12-20T11:07:04;1.92;;;1.10;;
72335;SDS011;73817;48.446;8.834;2023-12-20T11:13:31;2.58;;;0.65;;
72335;SDS011;73817;48.446;8.834;2023-12-20T11:16:37;1.42;;;1.08;;
72335;SDS011;73817;48.446;8.834;2023-12-20T11:19:43;2.58;;;0.70;;
72335;SDS011;73817;48.446;8.834;2023-12-20T11:22:59;1.23;;;0.90;;
72335;SDS011;73817;48.446;8.834;2023-12-20T11:26:01;1.17;;;0.55;;
72335;SDS011;73817;48.446;8.834;2023-12-20T11:29:28;1.27;;;0.70;;
72335;SDS011;73817;48.446;8.834;2023-12-20T11:32:29;0.95;;;0.43;;
72335;SDS011;73817;48.446;8.834;2023-12-20T11:35:30;7.63;;;2.88;;
72335;SDS011;73817;48.446;8.834;2023-12-20T11:38:37;2.30;;;1.05;;
72335;SDS011;73817;48.446;8.834;2023-12-20T11:41:37;2.30;;;1.00;;
72335;SDS011;73817;48.446;8.834;2023-12-20T11:44:37;2.90;;;1.45;;
72335;SDS011;73817;48.446;8.834;2023-12-20T11:47:38;2.65;;;1.10;;
72335;SDS011;73817;48.446;8.834;2023-12-20T11:50:38;2.00;;;0.77;;
72335;SDS011;73817;48.446;8.834;2023-12-20T11:53:40;2.30;;;1.25;;
72335;SDS011;73817;48.446;8.834;2023-12-20T11:56:42;1.10;;;0.85;;
72335;SDS011;73817;48.446;8.834;2023-12-20T11:59:42;3.97;;;1.60;;
72335;SDS011;73817;48.446;8.834;2023-12-20T12:02:43;2.22;;;0.70;;
72335;SDS011;73817;48.446;8.834;2023-12-20T12:05:44;2.30;;;0.90;;
72335;SDS011;73817;48.446;8.834;2023-12-20T12:08:47;2.13;;;0.80;;
72335;SDS011;73817;48.446;8.834;2023-12-20T12:11:47;2.53;;;0.68;;
72335;SDS011;73817;48.446;8.834;2023-12-20T12:14:48;2.75;;;0.82;;
72335;SDS011;73817;48.446;8.834;2023-12-20T12:17:52;3.97;;;0.70;;
72335;SDS011;73817;48.446;8.834;2023-12-20T12:21:00;1.67;;;0.55;;
72335;SDS011;73817;48.446;8.834;2023-12-20T12:24:08;1.88;;;0.50;;
72335;SDS011;73817;48.446;8.834;2023-12-20T12:27:09;2.55;;;0.93;;
72335;SDS011;73817;48.446;8.834;2023-12-20T12:30:10;3.00;;;1.00;;
72335;SDS011;73817;48.446;8.834;2023-12-20T12:33:12;1.80;;;0.95;;
72335;SDS011;73817;48.446;8.834;2023-12-20T12:36:13;3.10;;;0.75;;
72335;SDS011;73817;48.446;8.834;2023-12-20T12:39:17;4.03;;;1.25;;
72335;SDS011;73817;48.446;8.834;2023-12-20T12:42:18;8.27;;;3.58;;
72335;SDS011;73817;48.446;8.834;2023-12-20T12:45:19;4.93;;;0.60;;
72335;SDS011;73817;48.446;8.834;2023-12-20T12:48:19;2.17;;;0.50;;
72335;SDS011;73817;48.446;8.834;2023-12-20T12:51:19;1.92;;;0.63;;
72335;SDS011;73817;48.446;8.834;2023-12-20T12:54:20;1.85;;;0.80;;
72335;SDS011;73817;48.446;8.834;2023-12-20T12:57:20;3.33;;;0.57;;
72335;SDS011;73817;48.446;8.834;2023-12-20T13:00:21;0.98;;;0.40;;
72335;SDS011;73817;48.446;8.834;2023-12-20T13:03:21;3.40;;;0.52;;
72335;SDS011;73817;48.446;8.834;2023-12-20T13:06:22;2.92;;;0.60;;
72335;SDS011;73817;48.446;8.834;2023-12-20T13:09:22;2.28;;;0.50;;
72335;SDS011;73817;48.446;8.834;2023-12-20T13:12:23;1.33;;;0.43;;
72335;SDS011;73817;48.446;8.834;2023-12-20T13:15:23;1.65;;;0.88;;
72335;SDS011;73817;48.446;8.834;2023-12-20T13:18:24;1.60;;;0.50;;
72335;SDS011;73817;48.446;8.834;2023-12-20T13:21:24;2.42;;;0.70;;
72335;SDS011;73817;48.446;8.834;2023-12-20T13:24:24;0.40;;;0.28;;
72335;SDS011;73817;48.446;8.834;2023-12-20T13:27:25;1.52;;;0.43;;
72335;SDS011;73817;48.446;8.834;2023-12-20T13:30:25;3.00;;;0.55;;
72335;SDS011;73817;48.446;8.834;2023-12-20T13:33:25;1.35;;;0.65;;
72335;SDS011;73817;48.446;8.834;2023-12-20T13:36:26;2.15;;;0.80;;
72335;SDS011;73817;48.446;8.834;2023-12-20T13:39:26;1.65;;;0.65;;
72335;SDS011;73817;48.446;8.834;2023-12-20T13:42:27;1.00;;;0.65;;
72335;SDS011;73817;48.446;8.834;2023-12-20T13:45:27;2.13;;;0.47;;
72335;SDS011;73817;48.446;8.834;2023-12-20T13:48:27;2.67;;;0.60;;
72335;SDS011;73817;48.446;8.834;2023-12-20T13:54:28;2.17;;;0.60;;
72335;SDS011;73817;48.446;8.834;2023-12-20T14:00:29;1.95;;;0.70;;
72335;SDS011;73817;48.446;8.834;2023-12-20T14:03:29;2.38;;;0.82;;
72335;SDS011;73817;48.446;8.834;2023-12-20T14:06:31;1.67;;;0.63;;
72335;SDS011;73817;48.446;8.834;2023-12-20T14:09:31;6.47;;;2.10;;
72335;SDS011;73817;48.446;8.834;2023-12-20T14:12:32;19.60;;;5.82;;
72335;SDS011;73817;48.446;8.834;2023-12-20T14:15:36;14.25;;;4.95;;
72335;SDS011;73817;48.446;8.834;2023-12-20T14:18:37;5.82;;;1.40;;
72335;SDS011;73817;48.446;8.834;2023-12-20T14:21:37;4.20;;;1.27;;
72335;SDS011;73817;48.446;8.834;2023-12-20T14:24:37;3.92;;;0.80;;
72335;SDS011;73817;48.446;8.834;2023-12-20T14:27:38;1.50;;;0.60;;
72335;SDS011;73817;48.446;8.834;2023-12-20T14:30:39;2.63;;;0.50;;
72335;SDS011;73817;48.446;8.834;2023-12-20T14:33:40;2.08;;;0.70;;
72335;SDS011;73817;48.446;8.834;2023-12-20T14:36:42;4.75;;;1.13;;
72335;SDS011;73817;48.446;8.834;2023-12-20T14:39:42;2.95;;;0.80;;
72335;SDS011;73817;48.446;8.834;2023-12-20T14:42:43;1.10;;;0.60;;
72335;SDS011;73817;48.446;8.834;2023-12-20T14:45:44;3.22;;;1.38;;
72335;SDS011;73817;48.446;8.834;2023-12-20T14:48:44;5.57;;;0.98;;
72335;SDS011;73817;48.446;8.834;2023-12-20T14:51:45;4.45;;;1.35;;
72335;SDS011;73817;48.446;8.834;2023-12-20T14:54:47;3.47;;;0.73;;
72335;SDS011;73817;48.446;8.834;2023-12-20T14:57:48;2.50;;;0.55;;
72335;SDS011;73817;48.446;8.834;2023-12-20T15:00:49;2.00;;;0.68;;
72335;SDS011;73817;48.446;8.834;2023-12-20T15:03:49;2.42;;;0.70;;
72335;SDS011;73817;48.446;8.834;2023-12-20T15:06:50;2.47;;;0.68;;
72335;SDS011;73817;48.446;8.834;2023-12-20T15:09:50;2.35;;;1.08;;
72335;SDS011;73817;48.446;8.834;2023-12-20T15:12:50;3.05;;;0.95;;
72335;SDS011;73817;48.446;8.834;2023-12-20T15:15:51;3.50;;;1.00;;
72335;SDS011;73817;48.446;8.834;2023-12-20T15:18:51;5.13;;;0.70;;
72335;SDS011;73817;48.446;8.834;2023-12-20T15:21:53;3.72;;;0.70;;
72335;SDS011;73817;48.446;8.834;2023-12-20T15:24:53;2.35;;;1.00;;
72335;SDS011;73817;48.446;8.834;2023-12-20T15:27:55;2.15;;;0.73;;
72335;SDS011;73817;48.446;8.834;2023-12-20T15:30:55;3.55;;;0.80;;
72335;SDS011;73817;48.446;8.834;2023-12-20T15:33:56;2.80;;;0.70;;
72335;SDS011;73817;48.446;8.834;2023-12-20T15:36:57;2.60;;;0.50;;
72335;SDS011;73817;48.446;8.834;2023-12-20T15:39:57;3.47;;;0.90;;
72335;SDS011;73817;48.446;8.834;2023-12-20T15:42:57;2.63;;;0.75;;
72335;SDS011;73817;48.446;8.834;2023-12-20T15:48:59;2.03;;;0.80;;
72335;SDS011;73817;48.446;8.834;2023-12-20T15:52:00;5.25;;;0.60;;
72335;SDS011;73817;48.446;8.834;2023-12-20T15:55:01;1.35;;;0.43;;
72335;SDS011;73817;48.446;8.834;2023-12-20T15:58:01;1.52;;;0.88;;
72335;SDS011;73817;48.446;8.834;2023-12-20T16:01:02;1.75;;;0.85;;
72335;SDS011;73817;48.446;8.834;2023-12-20T16:04:02;0.82;;;0.50;;
72335;SDS011;73817;48.446;8.834;2023-12-20T16:07:03;3.15;;;1.30;;
72335;SDS011;73817;48.446;8.834;2023-12-20T16:10:03;1.23;;;0.73;;
72335;SDS011;73817;48.446;8.834;2023-12-20T16:13:05;1.52;;;0.90;;
72335;SDS011;73817;48.446;8.834;2023-12-20T16:16:06;0.47;;;0.45;;
72335;SDS011;73817;48.446;8.834;2023-12-20T16:19:06;2.38;;;0.50;;
72335;SDS011;73817;48.446;8.834;2023-12-20T16:22:07;2.40;;;0.73;;
72335;SDS011;73817;48.446;8.834;2023-12-20T16:25:07;5.50;;;1.13;;
72335;SDS011;73817;48.446;8.834;2023-12-20T16:28:08;2.88;;;0.80;;
72335;SDS011;73817;48.446;8.834;2023-12-20T16:31:08;2.80;;;0.85;;
72335;SDS011;73817;48.446;8.834;2023-12-20T16:34:09;1.08;;;0.68;;
72335;SDS011;73817;48.446;8.834;2023-12-20T16:37:09;2.47;;;0.60;;
72335;SDS011;73817;48.446;8.834;2023-12-20T16:40:10;3.33;;;1.20;;
72335;SDS011;73817;48.446;8.834;2023-12-20T16:43:11;3.28;;;1.02;;
72335;SDS011;73817;48.446;8.834;2023-12-20T16:46:11;1.67;;;0.70;;
72335;SDS011;73817;48.446;8.834;2023-12-20T16:49:11;2.67;;;0.90;;
72335;SDS011;73817;48.446;8.834;2023-12-20T16:52:12;13.07;;;7.18;;
72335;SDS011;73817;48.446;8.834;2023-12-20T16:55:13;5.40;;;1.45;;
72335;SDS011;73817;48.446;8.834;2023-12-20T16:58:14;2.80;;;0.95;;
72335;SDS011;73817;48.446;8.834;2023-12-20T17:01:14;3.65;;;0.88;;
72335;SDS011;73817;48.446;8.834;2023-12-20T17:04:16;4.28;;;1.00;;
72335;SDS011;73817;48.446;8.834;2023-12-20T17:07:16;2.28;;;0.90;;
72335;SDS011;73817;48.446;8.834;2023-12-20T17:10:17;2.78;;;1.13;;
72335;SDS011;73817;48.446;8.834;2023-12-20T17:13:18;3.30;;;1.35;;
72335;SDS011;73817;48.446;8.834;2023-12-20T17:16:18;2.13;;;1.25;;
72335;SDS011;73817;48.446;8.834;2023-12-20T17:19:18;3.83;;;2.15;;
72335;SDS011;73817;48.446;8.834;2023-12-20T17:22:20;2.83;;;0.82;;
72335;SDS011;73817;48.446;8.834;2023-12-20T17:25:20;2.88;;;1.10;;
72335;SDS011;73817;48.446;8.834;2023-12-20T17:28:21;3.08;;;1.10;;
72335;SDS011;73817;48.446;8.834;2023-12-20T17:31:22;2.70;;;1.10;;
72335;SDS011;73817;48.446;8.834;2023-12-20T17:34:22;4.10;;;1.05;;
72335;SDS011;73817;48.446;8.834;2023-12-20T17:37:22;1.85;;;0.80;;
72335;SDS011;73817;48.446;8.834;2023-12-20T17:40:23;3.35;;;1.13;;
72335;SDS011;73817;48.446;8.834;2023-12-20T17:43:23;3.30;;;1.20;;
72335;SDS011;73817;48.446;8.834;2023-12-20T17:46:24;5.35;;;2.35;;
72335;SDS011;73817;48.446;8.834;2023-12-20T17:49:24;4.38;;;1.15;;
72335;SDS011;73817;48.446;8.834;2023-12-20T17:52:24;5.28;;;1.83;;
72335;SDS011;73817;48.446;8.834;2023-12-20T17:55:25;5.80;;;2.72;;
72335;SDS011;73817;48.446;8.834;2023-12-20T17:58:26;13.48;;;6.55;;
72335;SDS011;73817;48.446;8.834;2023-12-20T18:01:26;9.18;;;4.63;;
72335;SDS011;73817;48.446;8.834;2023-12-20T18:04:27;9.15;;;4.35;;
72335;SDS011;73817;48.446;8.834;2023-12-20T18:07:27;8.20;;;3.72;;
72335;SDS011;73817;48.446;8.834;2023-12-20T18:10:27;3.55;;;1.05;;
72335;SDS011;73817;48.446;8.834;2023-12-20T18:13:28;3.22;;;1.52;;
72335;SDS011;73817;48.446;8.834;2023-12-20T18:16:28;3.63;;;1.45;;
72335;SDS011;73817;48.446;8.834;2023-12-20T18:19:28;4.43;;;1.10;;
72335;SDS011;73817;48.446;8.834;2023-12-20T18:22:29;4.10;;;1.40;;
72335;SDS011;73817;48.446;8.834;2023-12-20T18:25:30;3.80;;;1.30;;